Time;durP1;ratioP1;P1;durP2;ratioP2;P2;SDS_P1;SDS_P2;PMS_P1;PMS_P2;Temp;Humidity;BMP_temperature;BMP_pressure;BME280_temperature;BME280_humidity;BME280_pressure;Samples;Min_cycle;Max_cycle;Signal;HPM_P1;HPM_P2
2021/05/28 00:02:26;;;;;;;9.13;3.10;;;;;;;-145.50;100.00;65435.88;4950155;28;20160;-72
2021/05/28 00:05:14;;;;;;;5.72;2.53;;;;;;;-145.50;100.00;65435.88;4979358;28;20502;-72
2021/05/28 00:08:01;;;;;;;9.45;3.17;;;;;;;-145.50;100.00;65435.88;4973747;28;20485;-72
2021/05/28 00:10:48;;;;;;;6.85;2.88;;;;;;;-145.50;100.00;65435.88;4975703;28;20128;-72
2021/05/28 00:13:35;;;;;;;10.25;3.85;;;;;;;-145.50;100.00;65435.88;4970584;28;20082;-72
2021/05/28 00:16:25;;;;;;;11.73;3.50;;;;;;;-145.50;100.00;65435.88;4977462;28;20046;-72
2021/05/28 00:19:13;;;;;;;12.57;3.47;;;;;;;-145.50;100.00;65435.88;4974414;28;20200;-73
2021/05/28 00:22:00;;;;;;;10.70;3.35;;;;;;;-145.50;100.00;65435.88;4980473;28;20104;-73
2021/05/28 00:24:47;;;;;;;10.63;3.67;;;;;;;-145.50;100.00;65435.88;4971284;28;20407;-72
2021/05/28 00:27:35;;;;;;;11.70;4.10;;;;;;;-145.50;100.00;65435.88;4976557;28;20054;-72
2021/05/28 00:30:24;;;;;;;12.18;4.18;;;;;;;-145.50;100.00;65435.88;4968331;28;20148;-73
2021/05/28 00:33:11;;;;;;;11.95;4.07;;;;;;;-145.50;100.00;65435.88;4980636;28;20112;-72
2021/05/28 00:35:58;;;;;;;6.88;3.58;;;;;;;-145.50;100.00;65435.88;4970895;28;20073;-73
2021/05/28 00:38:46;;;;;;;9.73;3.90;;;;;;;-145.50;100.00;65435.88;4981087;28;20078;-72
2021/05/28 00:41:33;;;;;;;8.67;3.47;;;;;;;-145.50;100.00;65435.88;4965885;28;20105;-72
2021/05/28 00:44:23;;;;;;;9.00;3.83;;;;;;;-145.50;100.00;65435.88;4976232;28;20148;-73
2021/05/28 00:47:10;;;;;;;7.10;3.50;;;;;;;-145.50;100.00;65435.88;4958422;28;20354;-73
2021/05/28 00:49:58;;;;;;;10.68;4.03;;;;;;;-145.50;100.00;65435.88;4981476;28;20057;-72
2021/05/28 00:52:48;;;;;;;10.32;3.80;;;;;;;-145.50;100.00;65435.88;4975533;28;20093;-73
2021/05/28 00:55:35;;;;;;;10.43;3.92;;;;;;;-145.50;100.00;65435.88;4974865;28;20082;-73
2021/05/28 00:58:22;;;;;;;12.55;4.07;;;;;;;-145.50;100.00;65435.88;4971131;28;20173;-74
2021/05/28 01:01:09;;;;;;;8.48;3.90;;;;;;;-145.50;100.00;65435.88;4981039;28;20095;-73
2021/05/28 01:03:56;;;;;;;9.65;3.95;;;;;;;-145.50;100.00;65435.88;4982708;28;20092;-73
2021/05/28 01:06:43;;;;;;;9.55;3.70;;;;;;;-145.50;100.00;65435.88;4979305;28;20120;-73
2021/05/28 01:09:30;;;;;;;9.43;5.07;;;;;;;-145.50;100.00;65435.88;4977010;28;20085;-73
2021/05/28 01:12:17;;;;;;;10.25;4.50;;;;;;;-145.50;100.00;65435.88;4978035;28;20505;-73
2021/05/28 01:15:06;;;;;;;14.50;5.25;;;;;;;-145.50;100.00;65435.88;4979212;28;20141;-73
2021/05/28 01:17:53;;;;;;;14.60;4.93;;;;;;;-145.50;100.00;65435.88;4974155;28;20101;-73
2021/05/28 01:20:40;;;;;;;11.65;5.22;;;;;;;-145.50;100.00;65435.88;4984689;28;20090;-73
2021/05/28 01:23:27;;;;;;;15.00;5.10;;;;;;;-145.50;100.00;65435.88;4976019;28;20054;-73
2021/05/28 01:26:15;;;;;;;12.77;5.10;;;;;;;-145.50;100.00;65435.88;4980458;28;20475;-73
2021/05/28 01:29:02;;;;;;;10.82;5.43;;;;;;;-145.50;100.00;65435.88;4974716;28;20842;-73
2021/05/28 01:31:50;;;;;;;11.32;5.05;;;;;;;-145.50;100.00;65435.88;4967884;28;20050;-73
2021/05/28 01:34:37;;;;;;;11.10;5.00;;;;;;;-145.50;100.00;65435.88;4962196;28;20082;-73
2021/05/28 01:37:24;;;;;;;11.18;6.10;;;;;;;-145.50;100.00;65435.88;4984327;28;20100;-73
2021/05/28 01:40:12;;;;;;;13.07;6.25;;;;;;;-145.50;100.00;65435.88;4976289;28;20109;-73
2021/05/28 01:42:59;;;;;;;12.70;6.55;;;;;;;-145.50;100.00;65435.88;4987075;28;20081;-73
2021/05/28 01:45:46;;;;;;;21.00;7.78;;;;;;;-145.50;100.00;65435.88;4978139;28;20085;-73
2021/05/28 01:48:33;;;;;;;17.90;8.32;;;;;;;-145.50;100.00;65435.88;4987500;28;20522;-73
2021/05/28 01:51:21;;;;;;;15.95;7.05;;;;;;;-145.50;100.00;65435.88;4973870;28;20064;-73
2021/05/28 01:54:08;;;;;;;15.55;7.68;;;;;;;-145.50;100.00;65435.88;4980682;28;20650;-73
2021/05/28 01:56:55;;;;;;;18.73;8.38;;;;;;;-145.50;100.00;65435.88;4974435;28;20104;-73
2021/05/28 01:59:45;;;;;;;16.90;8.43;;;;;;;-145.50;100.00;65435.88;4985399;28;20082;-73
2021/05/28 02:02:33;;;;;;;18.92;8.63;;;;;;;-145.50;100.00;65435.88;4961166;28;20137;-73
2021/05/28 02:05:20;;;;;;;13.60;7.83;;;;;;;-145.50;100.00;65435.88;4979376;28;20096;-73
2021/05/28 02:08:07;;;;;;;16.88;8.18;;;;;;;-145.50;100.00;65435.88;4976109;28;20964;-73
2021/05/28 02:10:55;;;;;;;13.93;7.25;;;;;;;-145.50;100.00;65435.88;4982309;28;20057;-73
2021/05/28 02:13:42;;;;;;;14.70;8.93;;;;;;;-145.50;100.00;65435.88;4956965;28;20167;-73
2021/05/28 02:16:29;;;;;;;18.33;7.85;;;;;;;-145.50;100.00;65435.88;4985148;28;20085;-73
2021/05/28 02:19:16;;;;;;;13.30;8.23;;;;;;;-145.50;100.00;65435.88;4971882;28;20145;-73
2021/05/28 02:22:04;;;;;;;17.50;8.00;;;;;;;-145.50;100.00;65435.88;4982642;28;20434;-73
2021/05/28 02:24:51;;;;;;;15.57;8.48;;;;;;;-145.50;100.00;65435.88;4977327;28;20077;-73
2021/05/28 02:27:38;;;;;;;18.17;9.30;;;;;;;-145.50;100.00;65435.88;4981940;28;20101;-73
2021/05/28 02:30:25;;;;;;;15.82;8.65;;;;;;;-145.50;100.00;65435.88;4977607;28;20814;-73
2021/05/28 02:33:12;;;;;;;13.65;7.90;;;;;;;-145.50;100.00;65435.88;4982568;28;20057;-73
2021/05/28 02:35:59;;;;;;;18.15;9.35;;;;;;;-145.50;100.00;65435.88;4972272;28;20108;-73
2021/05/28 02:38:47;;;;;;;16.33;9.00;;;;;;;-145.50;100.00;65435.88;4982588;28;20565;-73
2021/05/28 02:41:34;;;;;;;18.90;10.15;;;;;;;-145.50;100.00;65435.88;4964607;28;20138;-73
2021/05/28 02:44:21;;;;;;;17.67;10.27;;;;;;;-145.50;100.00;65435.88;4983330;28;20512;-73
2021/05/28 02:47:08;;;;;;;17.27;10.88;;;;;;;-145.50;100.00;65435.88;4972666;28;20073;-73
2021/05/28 02:49:56;;;;;;;20.58;10.63;;;;;;;-145.50;100.00;65435.88;4976232;28;20660;-73
2021/05/28 02:52:43;;;;;;;19.95;10.10;;;;;;;-145.50;100.00;65435.88;4981309;28;20181;-73
2021/05/28 02:55:31;;;;;;;17.88;10.32;;;;;;;-145.50;100.00;65435.88;4981862;28;20139;-73
2021/05/28 02:58:18;;;;;;;17.25;10.57;;;;;;;-145.50;100.00;65435.88;4966010;28;20089;-73
2021/05/28 03:01:05;;;;;;;15.45;9.32;;;;;;;-145.50;100.00;65435.88;4975688;28;20152;-73
2021/05/28 03:03:52;;;;;;;21.67;11.63;;;;;;;-145.50;100.00;65435.88;4976194;28;20109;-73
2021/05/28 03:06:40;;;;;;;18.48;10.73;;;;;;;-145.50;100.00;65435.88;4981200;28;20077;-73
2021/05/28 03:09:27;;;;;;;19.48;10.95;;;;;;;-145.50;100.00;65435.88;4985558;28;20096;-73
2021/05/28 03:12:14;;;;;;;20.08;10.20;;;;;;;-145.50;100.00;65435.88;4961570;28;20104;-73
2021/05/28 03:15:02;;;;;;;17.63;10.38;;;;;;;-145.50;100.00;65435.88;4979139;28;20353;-73
2021/05/28 03:17:50;;;;;;;17.98;9.98;;;;;;;-145.50;100.00;65435.88;4973633;28;20145;-73
2021/05/28 03:20:37;;;;;;;18.38;10.85;;;;;;;-145.50;100.00;65435.88;4983785;28;20506;-73
2021/05/28 03:23:25;;;;;;;18.65;10.50;;;;;;;-145.50;100.00;65435.88;4959635;28;20085;-73
2021/05/28 03:26:12;;;;;;;16.63;10.60;;;;;;;-145.50;100.00;65435.88;4984162;28;20164;-73
2021/05/28 03:29:01;;;;;;;17.20;10.63;;;;;;;-145.50;100.00;65435.88;4972302;28;20061;-73
2021/05/28 03:31:48;;;;;;;18.52;10.02;;;;;;;-145.50;100.00;65435.88;4960844;28;20047;-73
2021/05/28 03:34:35;;;;;;;16.98;9.57;;;;;;;-145.50;100.00;65435.88;4971549;28;20120;-73
2021/05/28 03:37:22;;;;;;;19.40;10.57;;;;;;;-145.50;100.00;65435.88;4983990;28;20154;-73
2021/05/28 03:40:10;;;;;;;17.05;10.88;;;;;;;-145.50;100.00;65435.88;4972230;28;20482;-73
2021/05/28 03:42:57;;;;;;;15.38;9.98;;;;;;;-145.50;100.00;65435.88;4976865;28;20113;-73
2021/05/28 03:45:44;;;;;;;19.42;11.18;;;;;;;-145.50;100.00;65435.88;4971856;28;20113;-73
2021/05/28 03:48:31;;;;;;;23.83;11.55;;;;;;;-145.50;100.00;65435.88;4984011;28;20663;-73
2021/05/28 03:51:20;;;;;;;22.83;11.20;;;;;;;-145.50;100.00;65435.88;4976158;28;20054;-73
2021/05/28 03:54:07;;;;;;;19.13;11.00;;;;;;;-145.50;100.00;65435.88;4981505;28;20085;-73
2021/05/28 03:56:54;;;;;;;18.47;9.80;;;;;;;-145.50;100.00;65435.88;4973737;28;20081;-73
2021/05/28 03:59:41;;;;;;;20.63;11.43;;;;;;;-145.50;100.00;65435.88;4961409;28;20132;-72
2021/05/28 04:02:29;;;;;;;18.42;10.73;;;;;;;-145.50;100.00;65435.88;4969873;28;20094;-72
2021/05/28 04:05:16;;;;;;;17.48;10.43;;;;;;;-145.50;100.00;65435.88;4982800;28;20051;-73
2021/05/28 04:08:03;;;;;;;21.95;11.15;;;;;;;-145.50;100.00;65435.88;4971174;28;20089;-73
2021/05/28 04:10:50;;;;;;;21.83;10.60;;;;;;;-145.50;100.00;65435.88;4979541;28;20112;-72
2021/05/28 04:13:37;;;;;;;19.80;11.77;;;;;;;-145.50;100.00;65435.88;4966827;28;20094;-72
2021/05/28 04:16:24;;;;;;;20.52;11.15;;;;;;;-145.50;100.00;65435.88;4983382;28;20061;-72
2021/05/28 04:19:12;;;;;;;19.98;10.48;;;;;;;-145.50;100.00;65435.88;4975447;28;20442;-73
2021/05/28 04:21:59;;;;;;;17.13;9.30;;;;;;;-145.50;100.00;65435.88;4984231;28;20754;-73
2021/05/28 04:24:46;;;;;;;16.60;9.23;;;;;;;-145.50;100.00;65435.88;4973466;28;20053;-72
2021/05/28 04:27:34;;;;;;;18.15;10.32;;;;;;;-145.50;100.00;65435.88;4977109;28;20089;-73
2021/05/28 04:30:24;;;;;;;22.33;9.80;;;;;;;-145.50;100.00;65435.88;4979901;28;20124;-73
2021/05/28 04:33:11;;;;;;;16.48;9.13;;;;;;;-145.50;100.00;65435.88;4980335;28;20517;-73
2021/05/28 04:35:59;;;;;;;18.27;10.18;;;;;;;-145.50;100.00;65435.88;4982527;28;20094;-73
2021/05/28 04:38:46;;;;;;;16.50;9.77;;;;;;;-145.50;100.00;65435.88;4976399;28;20062;-73
2021/05/28 04:41:33;;;;;;;19.60;10.02;;;;;;;-145.50;100.00;65435.88;4980563;28;20145;-73
2021/05/28 04:44:20;;;;;;;20.65;10.27;;;;;;;-145.50;100.00;65435.88;4975696;28;20671;-73
2021/05/28 04:47:07;;;;;;;15.88;9.07;;;;;;;-145.50;100.00;65435.88;4980102;28;20148;-73
2021/05/28 04:49:54;;;;;;;17.70;9.27;;;;;;;-145.50;100.00;65435.88;4971058;28;20142;-73
2021/05/28 04:52:42;;;;;;;14.32;8.90;;;;;;;-145.50;100.00;65435.88;4964580;28;20097;-73
2021/05/28 04:55:30;;;;;;;18.30;9.15;;;;;;;-145.50;100.00;65435.88;4972137;28;20082;-73
2021/05/28 04:58:17;;;;;;;;;;;;;;;-145.50;100.00;65435.88;4966873;28;20050;-73
2021/05/28 05:01:05;;;;;;;16.60;9.07;;;;;;;-145.50;100.00;65435.88;4974163;28;20694;-72
2021/05/28 05:03:52;;;;;;;19.67;10.38;;;;;;;-145.50;100.00;65435.88;4975354;28;20054;-73
2021/05/28 05:06:39;;;;;;;18.83;9.65;;;;;;;-145.50;100.00;65435.88;4966200;28;20085;-73
2021/05/28 05:09:26;;;;;;;20.58;10.68;;;;;;;-145.50;100.00;65435.88;4975164;28;20078;-73
2021/05/28 05:12:13;;;;;;;14.55;9.70;;;;;;;-145.50;100.00;65435.88;4970055;28;20089;-73
2021/05/28 05:15:00;;;;;;;19.23;10.10;;;;;;;-145.50;100.00;65435.88;4980461;28;20085;-73
2021/05/28 05:17:47;;;;;;;19.73;10.20;;;;;;;-145.50;100.00;65435.88;4973923;28;20057;-73
2021/05/28 05:20:36;;;;;;;21.63;10.60;;;;;;;-145.50;100.00;65435.88;4977422;28;20140;-73
2021/05/28 05:23:23;;;;;;;20.45;10.45;;;;;;;-145.50;100.00;65435.88;4974276;28;20150;-73
2021/05/28 05:26:10;;;;;;;17.83;10.33;;;;;;;-145.50;100.00;65435.88;4982382;28;20082;-74
2021/05/28 05:28:57;;;;;;;19.83;10.57;;;;;;;-145.50;100.00;65435.88;4972783;28;20173;-73
2021/05/28 05:31:44;;;;;;;18.15;10.68;;;;;;;-145.50;100.00;65435.88;4976335;28;20050;-73
2021/05/28 05:34:31;;;;;;;14.98;9.88;;;;;;;-145.50;100.00;65435.88;4965751;28;20082;-73
2021/05/28 05:37:19;;;;;;;18.58;10.32;;;;;;;-145.50;100.00;65435.88;4980963;28;20084;-73
2021/05/28 05:40:07;;;;;;;16.60;10.25;;;;;;;-145.50;100.00;65435.88;4973014;28;20089;-73
2021/05/28 05:42:58;;;;;;;18.80;10.68;;;;;;;-145.50;100.00;65435.88;4975494;28;20046;-73
2021/05/28 05:45:45;;;;;;;17.40;10.15;;;;;;;-145.50;100.00;65435.88;4978244;28;20054;-72
2021/05/28 05:48:32;;;;;;;18.65;11.10;;;;;;;-145.50;100.00;65435.88;4973704;28;20513;-73
2021/05/28 05:51:19;;;;;;;17.42;10.32;;;;;;;-145.50;100.00;65435.88;4973447;28;20105;-72
2021/05/28 05:54:06;;;;;;;20.08;11.32;;;;;;;-145.50;100.00;65435.88;4977551;28;20086;-74
2021/05/28 05:56:54;;;;;;;21.33;12.00;;;;;;;-145.50;100.00;65435.88;4966472;28;20213;-72
2021/05/28 05:59:41;;;;;;;19.40;11.25;;;;;;;-145.50;100.00;65435.88;4961798;28;20530;-75
2021/05/28 06:02:28;;;;;;;19.27;11.00;;;;;;;-145.50;100.00;65435.88;4958604;28;20492;-73
2021/05/28 06:05:18;;;;;;;19.42;11.02;;;;;;;-145.50;100.00;65435.88;4972315;28;20748;-72
2021/05/28 06:08:05;;;;;;;17.92;11.23;;;;;;;-145.50;100.00;65435.88;4979366;28;20137;-73
2021/05/28 06:10:53;;;;;;;18.00;11.43;;;;;;;-145.50;100.00;65435.88;4981434;28;20081;-72
2021/05/28 06:13:42;;;;;;;20.08;11.48;;;;;;;-145.50;100.00;65435.88;4963510;28;20082;-73
2021/05/28 06:16:29;;;;;;;18.35;12.02;;;;;;;-145.50;100.00;65435.88;4973802;28;20082;-73
2021/05/28 06:19:16;;;;;;;18.92;11.48;;;;;;;-145.50;100.00;65435.88;4982560;28;20154;-73
2021/05/28 06:22:03;;;;;;;22.10;12.43;;;;;;;-145.50;100.00;65435.88;4980814;28;20081;-73
2021/05/28 06:24:51;;;;;;;20.33;12.45;;;;;;;-145.50;100.00;65435.88;4985630;28;20133;-73
2021/05/28 06:27:38;;;;;;;17.75;11.55;;;;;;;-145.50;100.00;65435.88;4972147;28;20528;-72
2021/05/28 06:30:26;;;;;;;16.63;11.32;;;;;;;-145.50;100.00;65435.88;4967698;28;20051;-72
2021/05/28 06:33:14;;;;;;;15.75;10.95;;;;;;;-145.50;100.00;65435.88;4974658;28;20565;-72
2021/05/28 06:36:02;;;;;;;16.35;10.48;;;;;;;-145.50;100.00;65435.88;4983835;28;20770;-73
2021/05/28 06:38:49;;;;;;;17.07;11.17;;;;;;;-145.50;100.00;65435.88;4977364;28;20054;-73
2021/05/28 06:41:36;;;;;;;15.38;9.77;;;;;;;-145.50;100.00;65435.88;4967792;28;20092;-73
2021/05/28 06:44:24;;;;;;;12.70;9.18;;;;;;;-145.50;100.00;65435.88;4972078;28;20734;-73
2021/05/28 06:47:12;;;;;;;15.40;10.13;;;;;;;-145.50;100.00;65435.88;4980036;28;20054;-73
2021/05/28 06:49:59;;;;;;;14.93;10.23;;;;;;;-145.50;100.00;65435.88;4971256;28;20081;-72
2021/05/28 06:52:47;;;;;;;13.38;9.30;;;;;;;-145.50;100.00;65435.88;4980083;28;20053;-73
2021/05/28 06:55:35;;;;;;;14.60;9.90;;;;;;;-145.50;100.00;65435.88;4973827;28;20070;-73
2021/05/28 06:58:22;;;;;;;15.82;10.60;;;;;;;-145.50;100.00;65435.88;4975187;28;20932;-73
2021/05/28 07:01:12;;;;;;;14.85;10.90;;;;;;;-145.50;100.00;65435.88;4975335;28;20073;-73
2021/05/28 07:04:03;;;;;;;17.23;11.30;;;;;;;-145.50;100.00;65435.88;4984513;28;20074;-72
2021/05/28 07:06:52;;;;;;;15.85;11.60;;;;;;;-145.50;100.00;65435.88;4976849;28;20150;-72
2021/05/28 07:09:39;;;;;;;;;;;;;;;-145.50;100.00;65435.88;4984441;28;20058;-72
2021/05/28 07:12:26;;;;;;;16.10;10.07;;;;;;;-145.50;100.00;65435.88;4964150;28;20269;-73
2021/05/28 07:15:14;;;;;;;13.85;10.20;;;;;;;-145.50;100.00;65435.88;4964939;28;20054;-72
2021/05/28 07:18:01;;;;;;;14.88;10.73;;;;;;;-145.50;100.00;65435.88;4955285;28;20078;-72
2021/05/28 07:20:48;;;;;;;14.50;10.13;;;;;;;-145.50;100.00;65435.88;4981351;28;20092;-73
2021/05/28 07:23:35;;;;;;;14.82;9.82;;;;;;;-145.50;100.00;65435.88;4956142;28;20078;-73
2021/05/28 07:26:23;;;;;;;16.98;9.55;;;;;;;-145.50;100.00;65435.88;4975572;28;20156;-73
2021/05/28 07:29:10;;;;;;;12.93;9.20;;;;;;;-145.50;100.00;65435.88;4975991;28;20054;-74
2021/05/28 07:31:57;;;;;;;15.00;9.63;;;;;;;-145.50;100.00;65435.88;4982988;28;20506;-73
2021/05/28 07:34:44;;;;;;;11.68;8.02;;;;;;;-145.50;100.00;65435.88;4971830;28;20082;-73
2021/05/28 07:37:31;;;;;;;13.50;9.52;;;;;;;-145.50;100.00;65435.88;4983662;28;20086;-73
2021/05/28 07:40:19;;;;;;;16.92;9.63;;;;;;;-145.50;100.00;65435.88;4976222;28;20073;-73
2021/05/28 07:43:06;;;;;;;14.05;9.25;;;;;;;-145.50;100.00;65435.88;4981117;28;20054;-73
2021/05/28 07:45:53;;;;;;;12.10;8.48;;;;;;;-145.50;100.00;65435.88;4958190;28;20567;-72
2021/05/28 07:48:41;;;;;;;15.73;8.88;;;;;;;-145.50;100.00;65435.88;4981748;28;20078;-73
2021/05/28 07:51:28;;;;;;;17.55;9.60;;;;;;;-145.50;100.00;65435.88;4979776;28;20065;-73
2021/05/28 07:54:16;;;;;;;13.30;8.95;;;;;;;-145.50;100.00;65435.88;4976513;28;20085;-73
2021/05/28 07:57:04;;;;;;;15.43;8.90;;;;;;;-145.50;100.00;65435.88;4979517;28;20617;-73
2021/05/28 07:59:51;;;;;;;15.60;9.75;;;;;;;-145.50;100.00;65435.88;4982718;28;20062;-73
2021/05/28 08:02:46;;;;;;;14.32;9.65;;;;;;;-145.50;100.00;65435.88;4982949;28;20109;-73
2021/05/28 08:05:33;;;;;;;17.85;10.35;;;;;;;-145.50;100.00;65435.88;4978273;28;20081;-73
2021/05/28 08:08:22;;;;;;;15.95;10.18;;;;;;;-145.50;100.00;65435.88;4976207;28;20061;-73
2021/05/28 08:11:09;;;;;;;12.32;9.40;;;;;;;-145.50;100.00;65435.88;4962199;28;20678;-73
2021/05/28 08:13:57;;;;;;;17.08;9.93;;;;;;;-145.50;100.00;65435.88;4966350;28;20082;-73
2021/05/28 08:16:45;;;;;;;18.48;9.65;;;;;;;-145.50;100.00;65435.88;4979531;28;20050;-73
2021/05/28 08:19:32;;;;;;;14.73;8.70;;;;;;;-145.50;100.00;65435.88;4980087;28;20145;-73
2021/05/28 08:22:19;;;;;;;16.15;8.60;;;;;;;-145.50;100.00;65435.88;4973553;28;20085;-73
2021/05/28 08:25:06;;;;;;;13.65;9.10;;;;;;;-145.50;100.00;65435.88;4966737;28;20074;-73
2021/05/28 08:27:53;;;;;;;15.27;8.68;;;;;;;-145.50;100.00;65435.88;4973859;28;20482;-73
2021/05/28 08:30:41;;;;;;;15.77;8.60;;;;;;;-145.50;100.00;65435.88;4979887;28;20047;-73
2021/05/28 08:33:28;;;;;;;14.43;8.43;;;;;;;-145.50;100.00;65435.88;4968211;28;20137;-73
2021/05/28 08:36:15;;;;;;;11.77;7.95;;;;;;;-145.50;100.00;65435.88;4977131;28;20128;-73
2021/05/28 08:39:03;;;;;;;13.15;8.30;;;;;;;-145.50;100.00;65435.88;4976042;28;20132;-73
2021/05/28 08:41:51;;;;;;;17.38;8.77;;;;;;;-145.50;100.00;65435.88;4978393;28;20085;-73
2021/05/28 08:44:39;;;;;;;15.93;8.82;;;;;;;-145.50;100.00;65435.88;4974963;28;20509;-73
2021/05/28 08:47:27;;;;;;;14.73;7.85;;;;;;;-145.50;100.00;65435.88;4974067;28;20165;-73
2021/05/28 08:50:14;;;;;;;11.10;7.87;;;;;;;-145.50;100.00;65435.88;4973032;28;20132;-73
2021/05/28 08:53:02;;;;;;;12.07;8.07;;;;;;;-145.50;100.00;65435.88;4981854;28;20129;-74
2021/05/28 08:55:50;;;;;;;12.07;8.23;;;;;;;-145.50;100.00;65435.88;4973681;28;20635;-74
2021/05/28 08:58:38;;;;;;;12.75;7.90;;;;;;;-145.50;100.00;65435.88;4965106;28;20062;-73
2021/05/28 09:01:26;;;;;;;12.50;7.68;;;;;;;-145.50;100.00;65435.88;4972873;28;20051;-73
2021/05/28 09:04:23;;;;;;;12.98;8.25;;;;;;;-145.50;100.00;65435.88;4975804;28;20074;-74
2021/05/28 09:07:21;;;;;;;16.07;8.17;;;;;;;-145.50;100.00;65435.88;4973107;28;20568;-74
2021/05/28 09:10:27;;;;;;;13.77;8.73;;;;;;;-145.50;100.00;65435.88;4983440;28;20112;-74
2021/05/28 09:13:21;;;;;;;13.15;9.07;;;;;;;-145.50;100.00;65435.88;4973810;28;20587;-74
2021/05/28 09:16:26;;;;;;;16.55;9.27;;;;;;;-145.50;100.00;65435.88;4970578;28;20474;-74
2021/05/28 09:19:13;;;;;;;10.82;7.40;;;;;;;-145.50;100.00;65435.88;4956214;28;20466;-74
2021/05/28 09:22:02;;;;;;;11.93;8.18;;;;;;;-145.50;100.00;65435.88;4978770;28;20081;-74
2021/05/28 09:24:56;;;;;;;9.80;6.50;;;;;;;-145.50;100.00;65435.88;4948321;28;20191;-74
2021/05/28 09:27:50;;;;;;;12.18;7.20;;;;;;;-145.50;100.00;65435.88;4956827;28;20113;-74
2021/05/28 09:30:39;;;;;;;10.27;7.13;;;;;;;-145.50;100.00;65435.88;4961831;28;20057;-74
2021/05/28 09:33:26;;;;;;;11.38;6.65;;;;;;;-145.50;100.00;65435.88;4977149;28;20096;-74
2021/05/28 09:36:26;;;;;;;9.50;6.53;;;;;;;-145.50;100.00;65435.88;4973105;28;20773;-75
2021/05/28 09:39:15;;;;;;;13.43;6.32;;;;;;;-145.50;100.00;65435.88;4980506;28;20098;-74
2021/05/28 09:42:13;;;;;;;9.95;6.03;;;;;;;-145.50;100.00;65435.88;4956303;28;20082;-74
2021/05/28 09:45:17;;;;;;;9.45;6.03;;;;;;;-145.50;100.00;65435.88;4976886;28;20054;-74
2021/05/28 09:48:13;;;;;;;9.43;5.78;;;;;;;-145.50;100.00;65435.88;4977495;28;20089;-74
2021/05/28 09:51:06;;;;;;;11.23;5.80;;;;;;;-145.50;100.00;65435.88;4980355;28;20474;-74
2021/05/28 09:53:57;;;;;;;8.65;5.78;;;;;;;-145.50;100.00;65435.88;4953466;28;20149;-74
2021/05/28 09:56:44;;;;;;;7.15;5.25;;;;;;;-145.50;100.00;65435.88;4982672;28;20449;-74
2021/05/28 09:59:45;;;;;;;8.63;4.90;;;;;;;-145.50;100.00;65435.88;4978367;28;20058;-74
2021/05/28 10:02:43;;;;;;;5.43;4.00;;;;;;;-145.50;100.00;65435.88;4984641;28;20050;-74
2021/05/28 10:05:35;;;;;;;5.85;3.72;;;;;;;-145.50;100.00;65435.88;4967738;28;20054;-74
2021/05/28 10:08:24;;;;;;;3.97;2.70;;;;;;;-145.50;100.00;65435.88;4983154;28;20077;-74
2021/05/28 10:11:13;;;;;;;6.10;2.95;;;;;;;-145.50;100.00;65435.88;4971129;28;20078;-74
2021/05/28 10:14:00;;;;;;;7.82;2.92;;;;;;;-145.50;100.00;65435.88;4977148;28;20141;-74
2021/05/28 10:16:47;;;;;;;5.33;3.20;;;;;;;-145.50;100.00;65435.88;4974909;28;20054;-74
2021/05/28 10:19:37;;;;;;;6.57;3.27;;;;;;;-145.50;100.00;65435.88;4987295;28;20513;-74
2021/05/28 10:22:27;;;;;;;4.78;2.53;;;;;;;-145.50;100.00;65435.88;4957190;28;20350;-73
2021/05/28 10:25:14;;;;;;;2.20;1.67;;;;;;;-145.50;100.00;65435.88;4977666;28;20141;-74
2021/05/28 10:28:03;;;;;;;2.00;1.48;;;;;;;-145.50;100.00;65435.88;4959246;28;20054;-73
2021/05/28 10:30:58;;;;;;;3.08;1.60;;;;;;;-145.50;100.00;65435.88;4978306;28;20062;-73
2021/05/28 10:33:52;;;;;;;4.15;1.50;;;;;;;-145.50;100.00;65435.88;4975301;28;20101;-72
2021/05/28 10:36:59;;;;;;;3.50;1.58;;;;;;;-145.50;100.00;65435.88;4980223;28;20050;-72
2021/05/28 10:39:47;;;;;;;2.88;1.60;;;;;;;-145.50;100.00;65435.88;4973881;28;20093;-73
2021/05/28 10:42:54;;;;;;;4.75;2.55;;;;;;;-145.50;100.00;65435.88;4983743;28;20054;-73
2021/05/28 10:46:04;;;;;;;4.30;2.35;;;;;;;-145.50;100.00;65435.88;4980995;28;20127;-73
2021/05/28 10:48:58;;;;;;;4.45;3.00;;;;;;;-145.50;100.00;65435.88;4984069;28;20065;-73
2021/05/28 10:51:45;;;;;;;5.38;3.72;;;;;;;-145.50;100.00;65435.88;4973143;28;20484;-73
2021/05/28 10:54:37;;;;;;;4.72;3.30;;;;;;;-145.50;100.00;65435.88;4975413;28;20050;-72
2021/05/28 10:57:28;;;;;;;;;;;;;;;-145.50;100.00;65435.88;4983796;28;20181;-73
2021/05/28 11:00:27;;;;;;;7.03;3.38;;;;;;;-145.50;100.00;65435.88;4966908;28;19933;-74
2021/05/28 11:03:15;;;;;;;4.80;2.75;;;;;;;-145.50;100.00;65435.88;4983612;28;20690;-74
2021/05/28 11:06:02;;;;;;;5.43;2.95;;;;;;;-145.50;100.00;65435.88;4963461;28;20482;-72
2021/05/28 11:09:04;;;;;;;3.55;2.70;;;;;;;-145.50;100.00;65435.88;4983608;28;20086;-74
2021/05/28 11:11:57;;;;;;;4.60;3.20;;;;;;;-145.50;100.00;65435.88;4982054;28;20173;-72
2021/05/28 11:15:02;;;;;;;5.60;4.05;;;;;;;-145.50;100.00;65435.88;4967744;28;20057;-75
2021/05/28 11:17:51;;;;;;;7.72;4.45;;;;;;;-145.50;100.00;65435.88;4975949;28;20086;-74
2021/05/28 11:21:14;;;;;;;5.57;3.53;;;;;;;-145.50;100.00;65435.88;4980001;28;20521;-75
2021/05/28 11:24:03;;;;;;;6.28;3.40;;;;;;;-145.50;100.00;65435.88;4975607;28;20109;-72
2021/05/28 11:26:50;;;;;;;6.50;3.63;;;;;;;-145.50;100.00;65435.88;4984218;28;20096;-73
2021/05/28 11:29:41;;;;;;;7.00;3.85;;;;;;;-145.50;100.00;65435.88;4979807;28;20116;-73
2021/05/28 11:32:48;;;;;;;5.10;3.80;;;;;;;-145.50;100.00;65435.88;4965276;28;20143;-73
2021/05/28 11:35:42;;;;;;;4.40;3.40;;;;;;;-145.50;100.00;65435.88;4972804;28;20108;-73
2021/05/28 11:38:33;;;;;;;5.55;3.03;;;;;;;-145.50;100.00;65435.88;4982708;28;20066;-73
2021/05/28 11:41:20;;;;;;;7.05;3.00;;;;;;;-145.50;100.00;65435.88;4974079;28;20097;-73
2021/05/28 11:44:11;;;;;;;4.00;2.60;;;;;;;-145.50;100.00;65435.88;4981882;28;20082;-73
2021/05/28 11:47:00;;;;;;;5.18;2.63;;;;;;;-145.50;100.00;65435.88;4969517;28;20093;-75
2021/05/28 11:49:27;;;;;;;3.17;2.45;;;;;;;-145.50;100.00;65435.88;4962547;28;20431;-73
2021/05/28 11:52:06;;;;;;;2.97;2.45;;;;;;;-145.50;100.00;65435.88;4979853;28;20683;-72
2021/05/28 11:54:35;;;;;;;5.25;2.13;;;;;;;-145.50;100.00;65435.88;4979129;28;20112;-73
2021/05/28 11:57:05;;;;;;;3.97;2.40;;;;;;;-145.50;100.00;65435.88;4984745;28;20058;-75
2021/05/28 11:59:57;;;;;;;7.80;2.35;;;;;;;-145.50;100.00;65435.88;4972784;28;20243;-73
2021/05/28 12:02:45;;;;;;;4.20;2.28;;;;;;;-145.50;100.00;65435.88;4975701;28;20116;-73
2021/05/28 12:05:22;;;;;;;5.50;2.72;;;;;;;-145.50;100.00;65435.88;4952330;28;20053;-73
2021/05/28 12:07:49;;;;;;;4.07;2.17;;;;;;;-145.50;100.00;65435.88;4964763;28;20089;-73
2021/05/28 12:10:17;;;;;;;5.82;2.40;;;;;;;-145.50;100.00;65435.88;4956673;28;20070;-74
2021/05/28 12:12:50;;;;;;;5.68;2.38;;;;;;;-145.50;100.00;65435.88;4981415;28;20441;-73
2021/05/28 12:15:17;;;;;;;2.85;2.13;;;;;;;-145.50;100.00;65435.88;4968147;28;20054;-73
2021/05/28 12:17:46;;;;;;;3.78;2.00;;;;;;;-145.50;100.00;65435.88;4963452;28;20156;-73
2021/05/28 12:20:20;;;;;;;3.70;2.00;;;;;;;-145.50;100.00;65435.88;4964918;28;20133;-73
2021/05/28 12:23:12;;;;;;;2.72;1.80;;;;;;;-145.50;100.00;65435.88;4976817;28;20128;-73
2021/05/28 12:25:49;;;;;;;5.47;2.33;;;;;;;-145.50;100.00;65435.88;4979486;28;20074;-73
2021/05/28 12:28:25;;;;;;;5.60;2.67;;;;;;;-145.50;100.00;65435.88;4971459;28;20103;-73
2021/05/28 12:30:55;;;;;;;6.03;2.42;;;;;;;-145.50;100.00;65435.88;4979124;28;20074;-73
2021/05/28 12:33:29;;;;;;;2.67;2.20;;;;;;;-145.50;100.00;65435.88;4975288;28;20532;-73
2021/05/28 12:35:58;;;;;;;2.95;2.15;;;;;;;-145.50;100.00;65435.88;4981011;28;20492;-73